Terminal Aerodrome Forecast
Issued by NWS Atlanta, GA

Home | Current Version | Previous Version | Text Only | Print | Product List | Glossary On
Versions: 1 2 3 4 5 6 7 8 9 10 11 12 13 14 15 16 17 18 19 20 21
000
FTUS42 KFFC 262320
TAFMCN
TAF
KMCN 262320Z 2700/2724 15006KT 6SM -SHRA BR SCT050
      TEMPO 2700/2701 4SM -TSRA BKN040CB
     FM270100 14006KT P6SM BKN045
     FM270400 13004KT P6SM BKN025
     FM270900 12003KT P6SM VCSH BKN007
     FM271500 14007KT P6SM VCSH BKN015
     FM272000 16008KT 5SM -TSRA BR BKN025CB=

USA.gov is the U.S. government's official web portal to all federal, state and local government web resources and services.